createdAt,value
2022-11-25T00:01:24.309Z,5.46
2022-11-25T00:03:53.855Z,5.37
2022-11-25T00:06:39.440Z,5.61
2022-11-25T00:09:10.332Z,5.78
2022-11-25T00:11:40.251Z,4.95
2022-11-25T00:14:10.492Z,4.70
2022-11-25T00:16:37.839Z,4.05
2022-11-25T00:19:05.194Z,3.55
2022-11-25T00:21:33.801Z,3.86
2022-11-25T00:24:06.239Z,3.64
2022-11-25T00:26:35.518Z,3.50
2022-11-25T00:29:06.494Z,3.64
2022-11-25T00:31:37.748Z,3.73
2022-11-25T00:34:05.380Z,4.02
2022-11-25T00:36:36.860Z,4.47
2022-11-25T00:39:11.329Z,4.12
2022-11-25T00:41:57.668Z,3.77
2022-11-25T00:44:39.634Z,3.57
2022-11-25T00:47:18.835Z,3.20
2022-11-25T00:49:51.154Z,3.27
2022-11-25T00:52:20.974Z,3.37
2022-11-25T00:54:49.788Z,3.13
2022-11-25T00:57:19.376Z,3.02
2022-11-25T00:59:47.146Z,2.94
2022-11-25T01:02:16.075Z,3.23
2022-11-25T01:04:44.963Z,3.43
2022-11-25T01:07:15.661Z,3.30
2022-11-25T01:09:43.341Z,3.35
2022-11-25T01:12:10.698Z,3.11
2022-11-25T01:14:38.459Z,3.32
2022-11-25T01:17:06.527Z,3.37
2022-11-25T01:19:35.083Z,3.27
2022-11-25T01:22:02.680Z,3.37
2022-11-25T01:24:30.291Z,3.55
2022-11-25T01:26:57.646Z,4.36
2022-11-25T01:29:25.202Z,4.85
2022-11-25T01:31:57.652Z,4.27
2022-11-25T01:34:26.533Z,3.73
2022-11-25T01:36:57.353Z,3.58
2022-11-25T01:39:30.390Z,3.77
2022-11-25T01:42:00.323Z,4.16
2022-11-25T01:44:29.063Z,4.31
2022-11-25T01:47:17.023Z,3.87
2022-11-25T01:49:45.921Z,3.15
2022-11-25T01:52:27.175Z,3.23
2022-11-25T01:55:00.194Z,3.25
2022-11-25T01:57:56.190Z,4.25
2022-11-25T02:00:25.620Z,4.80
2022-11-25T02:02:55.295Z,5.11
2022-11-25T02:05:36.568Z,4.36
2022-11-25T02:08:04.693Z,5.02
2022-11-25T02:10:32.615Z,4.77
2022-11-25T02:13:00.345Z,5.21
2022-11-25T02:15:29.334Z,4.30
2022-11-25T02:17:56.823Z,3.33
2022-11-25T02:20:25.780Z,2.82
2022-11-25T02:23:30.966Z,3.99
2022-11-25T02:25:59.829Z,2.83
2022-11-25T02:28:30.487Z,2.78
2022-11-25T02:30:58.716Z,2.84
2022-11-25T02:33:27.344Z,2.84
2022-11-25T02:35:58.204Z,2.66
2022-11-25T02:38:36.674Z,2.73
2022-11-25T02:41:16.998Z,3.21
2022-11-25T02:43:44.984Z,3.96
2022-11-25T02:46:20.327Z,5.12
2022-11-25T02:49:08.321Z,5.25
2022-11-25T02:51:38.394Z,5.05
2022-11-25T02:54:06.585Z,4.91
2022-11-25T02:56:35.472Z,4.86
2022-11-25T02:59:03.799Z,4.44
2022-11-25T03:01:31.840Z,4.10
2022-11-25T03:03:59.640Z,3.16
2022-11-25T03:06:29.247Z,3.29
2022-11-25T03:08:57.793Z,2.97
2022-11-25T03:11:47.045Z,3.16
2022-11-25T03:14:14.812Z,2.91
2022-11-25T03:16:42.642Z,3.42
2022-11-25T03:19:10.040Z,3.09
2022-11-25T03:21:37.613Z,2.89
2022-11-25T03:24:05.266Z,2.98
2022-11-25T03:26:32.913Z,2.94
2022-11-25T03:29:00.506Z,2.90
2022-11-25T03:31:28.098Z,3.25
2022-11-25T03:33:55.843Z,3.78
2022-11-25T03:36:23.709Z,4.16
2022-11-25T03:38:51.158Z,4.46
2022-11-25T03:41:18.618Z,5.17
2022-11-25T03:43:47.193Z,5.23
2022-11-25T03:46:14.923Z,5.42
2022-11-25T03:48:42.639Z,4.86
2022-11-25T03:51:10.358Z,5.18
2022-11-25T03:53:38.379Z,4.20
2022-11-25T03:56:06.322Z,3.14
2022-11-25T03:58:34.890Z,2.94
2022-11-25T04:01:04.082Z,3.60
2022-11-25T04:03:31.900Z,4.03
2022-11-25T04:05:59.345Z,4.25
2022-11-25T04:08:27.846Z,3.64
2022-11-25T04:10:55.757Z,3.60
2022-11-25T04:13:23.704Z,3.10
2022-11-25T04:15:52.031Z,3.41
2022-11-25T04:18:20.483Z,3.07
2022-11-25T04:20:49.854Z,4.06
2022-11-25T04:23:17.352Z,4.39
2022-11-25T04:25:45.208Z,3.56
2022-11-25T04:28:12.539Z,3.65
2022-11-25T04:30:41.229Z,2.65
2022-11-25T04:33:09.253Z,3.25
2022-11-25T04:35:36.902Z,3.30
2022-11-25T04:38:04.381Z,2.69
2022-11-25T04:40:33.818Z,2.62
2022-11-25T04:43:06.057Z,2.56
2022-11-25T04:48:29.447Z,2.68
2022-11-25T04:50:57.828Z,2.51
2022-11-25T04:53:25.211Z,3.14
2022-11-25T04:55:53.351Z,3.24
2022-11-25T04:58:40.964Z,2.83
2022-11-25T05:01:08.633Z,3.00
2022-11-25T05:03:36.960Z,2.76
2022-11-25T05:06:08.521Z,2.95
2022-11-25T05:08:36.513Z,4.37
2022-11-25T05:11:03.975Z,3.87
2022-11-25T05:13:31.453Z,4.62
2022-11-25T05:16:00.266Z,4.86
2022-11-25T05:18:27.776Z,4.90
2022-11-25T05:20:55.274Z,4.98
2022-11-25T05:23:23.032Z,4.87
2022-11-25T05:25:50.409Z,4.91
2022-11-25T05:28:19.807Z,4.48
2022-11-25T05:30:48.334Z,4.55
2022-11-25T05:33:17.125Z,4.47
2022-11-25T05:35:44.489Z,4.39
2022-11-25T05:38:12.133Z,3.32
2022-11-25T05:40:39.518Z,2.39
2022-11-25T05:43:07.160Z,2.46
2022-11-25T05:45:35.120Z,2.30
2022-11-25T05:48:03.804Z,2.34
2022-11-25T05:50:32.337Z,2.35
2022-11-25T05:53:03.310Z,2.44
2022-11-25T05:55:30.776Z,2.48
2022-11-25T05:57:59.503Z,2.32
2022-11-25T06:00:27.291Z,2.42
2022-11-25T06:02:55.088Z,2.31
2022-11-25T06:05:22.568Z,2.65
2022-11-25T06:07:50.426Z,2.81
2022-11-25T06:10:19.039Z,2.92
2022-11-25T06:12:46.729Z,2.70
2022-11-25T06:15:15.118Z,2.93
2022-11-25T06:17:42.756Z,3.03
2022-11-25T06:20:11.007Z,2.97
2022-11-25T06:22:38.382Z,3.01
2022-11-25T06:25:08.165Z,3.04
2022-11-25T06:28:04.542Z,3.25
2022-11-25T06:30:23.798Z,2.76
2022-11-25T06:32:54.564Z,2.58
2022-11-25T06:35:22.967Z,2.50
2022-11-25T06:37:51.058Z,2.72
2022-11-25T06:40:18.536Z,3.01
2022-11-25T06:42:45.873Z,3.30
2022-11-25T06:45:13.450Z,4.03
2022-11-25T06:47:40.755Z,4.64
2022-11-25T06:50:08.246Z,4.62
2022-11-25T06:52:35.962Z,4.11
2022-11-25T06:55:04.719Z,3.74
2022-11-25T06:57:32.551Z,3.47
2022-11-25T07:00:00.192Z,3.09
2022-11-25T07:02:27.894Z,3.33
2022-11-25T07:04:55.309Z,3.64
2022-11-25T07:07:22.869Z,3.82
2022-11-25T07:09:50.302Z,3.81
2022-11-25T07:12:17.605Z,3.68
2022-11-25T07:14:45.229Z,4.13
2022-11-25T07:17:13.446Z,4.65
2022-11-25T07:19:41.124Z,4.75
2022-11-25T07:22:08.893Z,4.51
2022-11-25T07:24:36.895Z,4.45
2022-11-25T07:27:06.896Z,5.26
2022-11-25T07:29:57.961Z,5.43
2022-11-25T07:32:23.111Z,4.93
2022-11-25T07:34:51.537Z,5.17
2022-11-25T07:37:18.855Z,4.98
2022-11-25T07:39:47.474Z,5.36
2022-11-25T07:42:15.193Z,4.80
2022-11-25T07:44:42.568Z,4.42
2022-11-25T07:47:10.237Z,4.34
2022-11-25T07:49:39.969Z,5.60
2022-11-25T07:52:07.352Z,5.00
2022-11-25T07:54:34.675Z,5.52
2022-11-25T07:57:02.618Z,5.99
2022-11-25T07:59:30.048Z,5.61
2022-11-25T08:01:57.502Z,6.50
2022-11-25T08:04:25.274Z,6.01
2022-11-25T08:06:53.420Z,6.19
2022-11-25T08:09:22.863Z,6.55
2022-11-25T08:11:50.766Z,5.91
2022-11-25T08:14:18.427Z,6.85
2022-11-25T08:16:45.769Z,6.00
2022-11-25T08:19:15.818Z,6.45
2022-11-25T08:21:43.324Z,6.05
2022-11-25T08:24:15.894Z,5.96
2022-11-25T08:26:43.532Z,5.39
2022-11-25T08:29:15.435Z,5.58
2022-11-25T08:31:43.260Z,5.51
2022-11-25T08:34:17.707Z,6.04
2022-11-25T08:36:48.650Z,6.01
2022-11-25T08:39:44.266Z,6.57
2022-11-25T08:42:05.671Z,6.27
2022-11-25T08:44:33.501Z,6.79
2022-11-25T08:47:01.032Z,6.99
2022-11-25T08:49:31.152Z,6.10
2022-11-25T08:52:01.079Z,6.51
2022-11-25T08:54:28.690Z,6.29
2022-11-25T08:56:56.356Z,6.80
2022-11-25T08:59:25.263Z,6.64
2022-11-25T09:01:53.037Z,6.91
2022-11-25T09:04:20.449Z,6.57
2022-11-25T09:06:47.801Z,7.18
2022-11-25T09:09:15.399Z,6.56
2022-11-25T09:11:42.785Z,6.78
2022-11-25T09:14:10.240Z,7.32
2022-11-25T09:16:38.197Z,6.75
2022-11-25T09:19:06.669Z,6.93
2022-11-25T09:21:34.073Z,7.63
2022-11-25T09:24:01.674Z,7.34
2022-11-25T09:26:31.528Z,8.11
2022-11-25T09:28:58.905Z,7.58
2022-11-25T09:31:26.584Z,7.28
2022-11-25T09:33:54.015Z,7.47
2022-11-25T09:36:23.319Z,7.35
2022-11-25T09:38:51.571Z,7.44
2022-11-25T09:42:02.430Z,8.53
2022-11-25T09:45:10.243Z,7.78
2022-11-25T09:47:52.913Z,8.20
2022-11-25T09:50:41.355Z,8.54
2022-11-25T09:53:21.371Z,8.29
2022-11-25T09:55:50.852Z,8.52
2022-11-25T09:58:33.542Z,8.99
2022-11-25T10:01:05.578Z,8.25
2022-11-25T10:03:33.804Z,8.92
2022-11-25T10:06:18.406Z,7.99
2022-11-25T10:08:58.614Z,8.29
2022-11-25T10:11:46.194Z,8.06
2022-11-25T10:14:31.106Z,8.03
2022-11-25T10:17:04.099Z,7.95
2022-11-25T10:19:55.448Z,8.35
2022-11-25T10:22:25.955Z,8.50
2022-11-25T10:24:57.679Z,8.48
2022-11-25T10:27:40.475Z,8.54
2022-11-25T10:30:21.406Z,9.10
2022-11-25T10:33:02.798Z,10.33
2022-11-25T10:35:35.719Z,10.38
2022-11-25T10:38:06.995Z,9.44
2022-11-25T10:40:34.628Z,9.15
2022-11-25T10:43:05.735Z,9.13
2022-11-25T10:45:40.621Z,9.78
2022-11-25T10:48:30.318Z,10.14
2022-11-25T10:51:38.138Z,10.52
2022-11-25T10:54:39.211Z,10.73
2022-11-25T10:57:19.994Z,10.13
2022-11-25T10:59:59.016Z,9.50
2022-11-25T11:02:35.549Z,10.28
2022-11-25T11:05:18.493Z,9.94
2022-11-25T11:07:47.132Z,9.42
2022-11-25T11:10:14.752Z,9.20
2022-11-25T11:13:05.029Z,9.07
2022-11-25T11:15:41.685Z,8.95
2022-11-25T11:18:30.568Z,9.10
2022-11-25T11:20:59.824Z,9.41
2022-11-25T11:23:28.686Z,9.14
2022-11-25T11:25:59.951Z,9.24
2022-11-25T11:28:39.755Z,9.81
2022-11-25T11:31:17.709Z,9.54
2022-11-25T11:33:48.399Z,10.02
2022-11-25T11:36:21.570Z,10.49
2022-11-25T11:39:06.634Z,9.57
2022-11-25T11:41:40.231Z,10.01
2022-11-25T11:44:45.183Z,9.77
2022-11-25T11:47:28.260Z,10.02
2022-11-25T11:50:14.681Z,10.32
2022-11-25T11:52:44.699Z,10.41
2022-11-25T11:56:05.656Z,10.26
2022-11-25T11:58:45.071Z,10.50
2022-11-25T12:01:41.041Z,11.56
2022-11-25T12:04:18.002Z,10.98
2022-11-25T12:07:16.673Z,11.64
2022-11-25T12:09:50.403Z,11.92
2022-11-25T12:12:19.382Z,11.99
2022-11-25T12:14:51.089Z,11.87
2022-11-25T12:17:27.491Z,12.13
2022-11-25T12:20:04.089Z,11.96
2022-11-25T12:22:49.319Z,11.78
2022-11-25T12:25:22.849Z,11.63
2022-11-25T12:27:57.026Z,12.28
2022-11-25T12:30:29.904Z,11.90
2022-11-25T12:33:21.167Z,12.51
2022-11-25T12:35:57.471Z,12.54
2022-11-25T12:38:37.883Z,12.81
2022-11-25T12:41:22.196Z,13.05
2022-11-25T12:44:00.581Z,13.11
2022-11-25T12:46:39.576Z,13.14
2022-11-25T12:49:14.248Z,11.89
2022-11-25T12:51:57.770Z,11.59
2022-11-25T12:54:49.109Z,12.78
2022-11-25T12:57:22.583Z,13.42
2022-11-25T13:00:32.702Z,12.69
2022-11-25T13:03:21.153Z,11.70
2022-11-25T13:06:22.715Z,12.94
2022-11-25T13:09:11.932Z,13.02
2022-11-25T13:12:18.018Z,13.17
2022-11-25T13:15:07.959Z,12.75
2022-11-25T13:17:40.110Z,13.18
2022-11-25T13:20:29.644Z,12.78
2022-11-25T13:23:13.222Z,12.63
2022-11-25T13:25:43.129Z,12.35
2022-11-25T13:28:32.789Z,12.31
2022-11-25T13:31:15.916Z,11.37
2022-11-25T13:33:43.341Z,10.86
2022-11-25T13:36:23.818Z,11.52
2022-11-25T13:38:51.064Z,11.73
2022-11-25T13:41:48.813Z,11.36
2022-11-25T13:44:22.087Z,11.10
2022-11-25T13:46:52.322Z,11.41
2022-11-25T13:49:44.215Z,11.32
2022-11-25T13:52:12.073Z,11.73
2022-11-25T13:54:44.586Z,12.05
2022-11-25T13:57:12.105Z,12.71
2022-11-25T13:59:42.123Z,12.85
2022-11-25T14:02:27.818Z,12.89
2022-11-25T14:05:00.762Z,12.71
2022-11-25T14:07:51.713Z,12.87
2022-11-25T14:10:31.184Z,12.36
2022-11-25T14:13:23.618Z,12.68
2022-11-25T14:16:07.099Z,11.65
2022-11-25T14:22:18.732Z,11.66
2022-11-25T14:24:49.598Z,12.31
2022-11-25T14:27:28.209Z,11.63
2022-11-25T14:30:19.343Z,11.81
2022-11-25T14:32:58.460Z,12.45
2022-11-25T14:35:45.078Z,11.46
2022-11-25T14:38:23.408Z,12.20
2022-11-25T14:41:10.427Z,11.91
2022-11-25T14:43:42.321Z,11.63
2022-11-25T14:46:21.357Z,11.46
2022-11-25T14:48:56.506Z,11.10
2022-11-25T14:51:26.476Z,10.83
2022-11-25T14:53:54.467Z,11.01
2022-11-25T14:56:30.116Z,11.07
2022-11-25T14:58:58.893Z,10.70
2022-11-25T15:01:31.109Z,9.56
2022-11-25T15:04:15.821Z,9.16
2022-11-25T15:06:49.020Z,9.05
2022-11-25T15:09:22.506Z,8.91
2022-11-25T15:12:13.722Z,8.61
2022-11-25T15:14:43.071Z,8.45
2022-11-25T15:17:24.656Z,8.38
2022-11-25T15:19:52.742Z,8.15
2022-11-25T15:22:23.514Z,7.86
2022-11-25T15:24:55.824Z,7.58
2022-11-25T15:27:26.380Z,7.31
2022-11-25T15:29:55.559Z,7.51
2022-11-25T15:32:25.520Z,7.65
2022-11-25T15:34:53.788Z,7.78
2022-11-25T15:37:21.485Z,7.80
2022-11-25T15:39:48.817Z,7.74
2022-11-25T15:42:22.443Z,8.04
2022-11-25T15:44:55.194Z,8.18
2022-11-25T15:47:25.748Z,8.69
2022-11-25T15:50:00.616Z,9.37
2022-11-25T15:52:38.088Z,9.56
2022-11-25T15:55:08.262Z,9.50
2022-11-25T15:57:37.077Z,9.04
2022-11-25T16:00:14.566Z,9.52
2022-11-25T16:02:42.171Z,9.52
2022-11-25T16:05:12.540Z,9.22
2022-11-25T16:07:52.125Z,9.00
2022-11-25T16:10:25.057Z,8.97
2022-11-25T16:13:23.609Z,8.71
2022-11-25T16:16:00.483Z,7.97
2022-11-25T16:18:41.874Z,7.40
2022-11-25T16:21:16.393Z,6.72
2022-11-25T16:24:06.932Z,7.09
2022-11-25T16:26:37.660Z,7.74
2022-11-25T16:29:31.366Z,8.08
2022-11-25T16:32:00.514Z,7.91
2022-11-25T16:34:29.162Z,7.37
2022-11-25T16:36:56.615Z,7.42
2022-11-25T16:39:24.223Z,7.62
2022-11-25T16:41:57.373Z,7.48
2022-11-25T16:44:26.584Z,6.93
2022-11-25T16:46:55.017Z,7.43
2022-11-25T16:49:22.737Z,7.48
2022-11-25T16:51:51.012Z,6.71
2022-11-25T16:54:19.617Z,7.17
2022-11-25T16:56:48.993Z,7.31
2022-11-25T16:59:19.814Z,7.17
2022-11-25T17:01:48.007Z,7.04
2022-11-25T17:04:16.160Z,6.67
2022-11-25T17:06:50.586Z,6.55
2022-11-25T17:09:32.379Z,7.04
2022-11-25T17:12:00.889Z,7.07
2022-11-25T17:14:31.613Z,6.48
2022-11-25T17:17:00.660Z,6.18
2022-11-25T17:19:28.593Z,6.05
2022-11-25T17:21:56.055Z,6.06
2022-11-25T17:24:24.792Z,5.78
2022-11-25T17:26:59.333Z,5.97
2022-11-25T17:29:33.235Z,6.50
2022-11-25T17:32:02.594Z,6.07
2022-11-25T17:34:33.685Z,5.84
2022-11-25T17:37:06.934Z,5.74
2022-11-25T17:39:35.140Z,5.39
2022-11-25T17:42:05.201Z,5.21
2022-11-25T17:44:32.859Z,5.96
2022-11-25T17:47:00.710Z,5.78
2022-11-25T17:49:28.813Z,6.40
2022-11-25T17:51:58.041Z,5.65
2022-11-25T17:54:25.964Z,5.67
2022-11-25T17:56:54.407Z,6.44
2022-11-25T17:59:33.246Z,6.35
2022-11-25T18:02:01.143Z,5.98
2022-11-25T18:04:36.517Z,5.65
2022-11-25T18:07:04.229Z,5.71
2022-11-25T18:09:32.139Z,5.78
2022-11-25T18:12:01.535Z,5.79
2022-11-25T18:14:32.453Z,6.33
2022-11-25T18:17:07.726Z,5.70
2022-11-25T18:19:35.324Z,5.50
2022-11-25T18:22:12.959Z,5.66
2022-11-25T18:24:41.388Z,5.86
2022-11-25T18:27:19.937Z,6.37
2022-11-25T18:29:47.978Z,6.53
2022-11-25T18:32:16.079Z,6.85
2022-11-25T18:34:43.953Z,6.79
2022-11-25T18:37:12.129Z,6.72
2022-11-25T18:39:40.273Z,6.20
2022-11-25T18:42:14.973Z,5.46
2022-11-25T18:44:44.899Z,5.19
2022-11-25T18:47:14.103Z,5.35
2022-11-25T18:49:41.916Z,4.92
2022-11-25T18:52:10.088Z,4.83
2022-11-25T18:54:38.120Z,4.49
2022-11-25T18:57:06.319Z,4.55
2022-11-25T18:59:36.428Z,4.30
2022-11-25T19:02:09.355Z,3.99
2022-11-25T19:04:37.369Z,3.83
2022-11-25T19:07:05.406Z,3.98
2022-11-25T19:09:33.290Z,3.92
2022-11-25T19:12:01.993Z,4.10
2022-11-25T19:14:36.224Z,4.46
2022-11-25T19:17:09.296Z,4.85
2022-11-25T19:19:38.522Z,4.85
2022-11-25T19:22:12.860Z,4.40
2022-11-25T19:24:40.996Z,4.73
2022-11-25T19:27:18.016Z,4.73
2022-11-25T19:29:46.513Z,4.61
2022-11-25T19:32:21.702Z,4.85
2022-11-25T19:34:57.672Z,5.08
2022-11-25T19:37:26.071Z,4.99
2022-11-25T19:39:55.152Z,4.95
2022-11-25T19:42:25.517Z,4.90
2022-11-25T19:44:54.774Z,4.63
2022-11-25T19:47:25.269Z,5.06
2022-11-25T19:49:55.314Z,5.47
2022-11-25T19:52:26.858Z,5.59
2022-11-25T19:54:55.098Z,4.88
2022-11-25T19:57:24.223Z,4.72
2022-11-25T19:59:51.894Z,4.35
2022-11-25T20:02:23.247Z,4.29
2022-11-25T20:04:54.137Z,4.76
2022-11-25T20:07:22.497Z,3.95
2022-11-25T20:09:51.591Z,4.31
2022-11-25T20:12:25.897Z,4.56
2022-11-25T20:14:54.553Z,4.53
2022-11-25T20:17:30.212Z,4.29
2022-11-25T20:20:00.649Z,4.14
2022-11-25T20:22:33.406Z,4.49
2022-11-25T20:25:02.841Z,5.18
2022-11-25T20:27:31.193Z,5.17
2022-11-25T20:30:03.458Z,4.53
2022-11-25T20:32:34.449Z,4.71
2022-11-25T20:35:02.518Z,4.69
2022-11-25T20:37:40.968Z,4.76
2022-11-25T20:40:17.223Z,4.65
2022-11-25T20:42:45.625Z,4.61
2022-11-25T20:45:15.600Z,4.44
2022-11-25T20:47:44.330Z,4.51
2022-11-25T20:50:15.747Z,4.57
2022-11-25T20:52:44.314Z,5.07
2022-11-25T20:55:20.712Z,4.57
2022-11-25T20:57:52.042Z,3.83
2022-11-25T21:00:25.145Z,3.41
2022-11-25T21:02:54.500Z,3.56
2022-11-25T21:05:21.953Z,3.94
2022-11-25T21:07:51.001Z,4.26
2022-11-25T21:10:20.763Z,4.09
2022-11-25T21:12:48.744Z,4.21
2022-11-25T21:15:21.487Z,4.25
2022-11-25T21:17:49.356Z,4.38
2022-11-25T21:20:17.836Z,4.48
2022-11-25T21:22:49.188Z,4.39
2022-11-25T21:25:18.659Z,4.50
2022-11-25T21:27:47.237Z,4.59
2022-11-25T21:30:27.659Z,4.71
2022-11-25T21:32:56.824Z,4.06
2022-11-25T21:35:34.881Z,4.30
2022-11-25T21:38:05.668Z,4.13
2022-11-25T21:40:41.153Z,4.13
2022-11-25T21:43:21.461Z,4.36
2022-11-25T21:45:53.077Z,4.51
2022-11-25T21:48:25.427Z,4.67
2022-11-25T21:50:53.200Z,4.75
2022-11-25T21:53:20.885Z,4.52
2022-11-25T21:55:48.588Z,4.99
2022-11-25T21:58:19.287Z,4.88
2022-11-25T22:01:05.369Z,4.97
2022-11-25T22:03:33.040Z,4.77
2022-11-25T22:06:00.385Z,4.48
2022-11-25T22:08:27.926Z,4.88
2022-11-25T22:10:55.934Z,4.86
2022-11-25T22:13:27.949Z,5.16
2022-11-25T22:15:57.160Z,4.96
2022-11-25T22:18:43.217Z,3.93
2022-11-25T22:21:14.919Z,4.98
2022-11-25T22:23:42.433Z,5.22
2022-11-25T22:26:21.266Z,5.61
2022-11-25T22:28:51.001Z,5.96
2022-11-25T22:31:19.615Z,6.20
2022-11-25T22:33:48.082Z,6.13
2022-11-25T22:36:28.931Z,6.31
2022-11-25T22:38:58.734Z,6.36
2022-11-25T22:41:27.108Z,6.05
2022-11-25T22:43:54.689Z,6.19
2022-11-25T22:46:22.084Z,6.24
2022-11-25T22:48:49.719Z,6.05
2022-11-25T22:51:18.755Z,5.57
2022-11-25T22:53:46.761Z,4.42
2022-11-25T22:56:19.432Z,5.70
2022-11-25T22:58:47.068Z,5.65
2022-11-25T23:01:16.017Z,5.82
2022-11-25T23:03:43.930Z,5.69
2022-11-25T23:06:14.583Z,5.55
2022-11-25T23:08:42.182Z,5.59
2022-11-25T23:11:16.103Z,5.88
2022-11-25T23:13:43.767Z,6.01
2022-11-25T23:16:11.395Z,5.96
2022-11-25T23:18:42.767Z,6.13
2022-11-25T23:21:19.669Z,6.02
2022-11-25T23:23:46.999Z,4.80
2022-11-25T23:29:00.002Z,5.77
2022-11-25T23:31:27.644Z,5.74
2022-11-25T23:33:55.019Z,5.50
2022-11-25T23:36:25.971Z,5.82
2022-11-25T23:38:56.175Z,5.12
2022-11-25T23:41:34.304Z,5.51
2022-11-25T23:44:10.620Z,5.89
2022-11-25T23:46:38.082Z,5.93
2022-11-25T23:49:07.590Z,5.86
2022-11-25T23:51:34.901Z,3.80
2022-11-25T23:54:02.299Z,3.17
2022-11-25T23:56:29.970Z,3.20
2022-11-25T23:58:57.319Z,3.18
